createdAt,value
2022-10-11T00:03:11.846Z,80.20
2022-10-11T00:08:14.116Z,79.90
2022-10-11T00:13:16.020Z,79.58
2022-10-11T00:18:18.183Z,78.87
2022-10-11T00:23:19.818Z,78.41
2022-10-11T00:28:21.942Z,77.73
2022-10-11T00:33:23.653Z,77.37
2022-10-11T00:38:29.543Z,76.92
2022-10-11T00:43:33.613Z,76.60
2022-10-11T00:48:40.360Z,76.57
2022-10-11T00:53:42.642Z,76.58
2022-10-11T00:58:44.745Z,76.84
2022-10-11T01:03:49.418Z,76.64
2022-10-11T01:08:51.661Z,76.66
2022-10-11T01:14:26.717Z,76.50
2022-10-11T01:19:50.182Z,76.82
2022-10-11T01:25:29.651Z,76.84
2022-10-11T01:30:33.577Z,76.73
2022-10-11T01:36:02.621Z,76.58
2022-10-11T01:41:09.152Z,76.39
2022-10-11T01:46:11.097Z,76.44
2022-10-11T01:51:12.759Z,76.43
2022-10-11T01:56:51.432Z,76.25
2022-10-11T02:02:02.361Z,76.18
2022-10-11T02:07:32.010Z,76.71
2022-10-11T02:12:41.490Z,76.21
2022-10-11T02:17:48.154Z,76.57
2022-10-11T02:22:51.893Z,76.49
2022-10-11T02:27:56.678Z,76.86
2022-10-11T02:33:03.786Z,77.08
2022-10-11T02:38:12.211Z,77.31
2022-10-11T02:43:24.090Z,77.15
2022-10-11T02:48:27.539Z,77.60
2022-10-11T02:53:29.650Z,77.67
2022-10-11T02:58:31.269Z,77.96
2022-10-11T03:03:33.571Z,77.55
2022-10-11T03:08:35.396Z,77.02
2022-10-11T03:13:37.072Z,77.09
2022-10-11T03:18:38.662Z,76.43
2022-10-11T03:23:40.462Z,76.44
2022-10-11T03:28:42.500Z,76.42
2022-10-11T03:33:44.268Z,74.45
2022-10-11T03:38:45.913Z,72.80
2022-10-11T03:43:47.665Z,70.34
2022-10-11T03:48:49.342Z,69.82
2022-10-11T03:53:51.203Z,70.01
2022-10-11T03:58:52.833Z,69.71
2022-10-11T04:03:57.536Z,69.82
2022-10-11T04:08:59.382Z,70.03
2022-10-11T04:14:01.082Z,70.60
2022-10-11T04:19:02.730Z,71.29
2022-10-11T04:24:04.695Z,71.68
2022-10-11T04:29:06.379Z,72.45
2022-10-11T04:34:07.976Z,73.13
2022-10-11T04:39:10.142Z,74.21
2022-10-11T04:44:11.860Z,74.93
2022-10-11T04:49:13.634Z,75.19
2022-10-11T04:54:16.818Z,75.10
2022-10-11T04:59:18.421Z,75.57
2022-10-11T05:04:20.055Z,75.64
2022-10-11T05:09:21.873Z,75.84
2022-10-11T05:14:24.370Z,76.28
2022-10-11T05:19:25.984Z,76.89
2022-10-11T05:24:27.686Z,77.41
2022-10-11T05:29:29.381Z,77.99
2022-10-11T05:34:31.035Z,78.18
2022-10-11T05:39:32.673Z,78.50
2022-10-11T05:44:34.273Z,79.04
2022-10-11T05:49:35.869Z,79.94
2022-10-11T05:54:37.454Z,80.03
2022-10-11T05:59:39.135Z,80.47
2022-10-11T06:04:40.743Z,80.80
2022-10-11T06:09:42.339Z,80.84
2022-10-11T06:14:44.548Z,81.10
2022-10-11T06:19:47.039Z,80.65
2022-10-11T06:24:48.720Z,80.51
2022-10-11T06:29:50.524Z,80.45
2022-10-11T06:34:52.307Z,79.70
2022-10-11T06:39:54.547Z,79.31
2022-10-11T06:44:56.370Z,78.65
2022-10-11T06:49:58.064Z,78.11
2022-10-11T06:55:00.019Z,77.46
2022-10-11T07:00:01.668Z,76.94
2022-10-11T07:05:05.986Z,76.80
2022-10-11T07:10:08.057Z,76.54
2022-10-11T07:15:10.501Z,76.21
2022-10-11T07:20:12.494Z,76.00
2022-10-11T07:25:14.142Z,76.09
2022-10-11T07:30:15.912Z,76.10
2022-10-11T07:35:17.548Z,75.57
2022-10-11T07:40:19.161Z,75.61
2022-10-11T07:45:20.929Z,75.13
2022-10-11T07:50:22.573Z,75.22
2022-10-11T07:55:25.253Z,74.72
2022-10-11T08:00:27.061Z,74.60
2022-10-11T08:05:28.789Z,74.03
2022-10-11T08:10:37.498Z,73.62
2022-10-11T08:15:39.279Z,73.33
2022-10-11T08:20:40.990Z,73.03
2022-10-11T08:25:44.372Z,72.84
2022-10-11T08:30:53.116Z,71.87
2022-10-11T08:35:55.554Z,71.42
2022-10-11T08:40:59.459Z,69.99
2022-10-11T08:46:05.077Z,69.29
2022-10-11T08:51:34.030Z,69.85
2022-10-11T08:56:40.052Z,69.98
2022-10-11T09:01:53.069Z,68.34
2022-10-11T09:07:05.471Z,68.58
2022-10-11T09:12:39.829Z,68.75
2022-10-11T09:18:11.398Z,64.90
2022-10-11T09:23:34.272Z,66.45
2022-10-11T09:29:01.406Z,65.55
2022-10-11T09:34:11.899Z,65.09
2022-10-11T09:39:38.670Z,63.42
2022-10-11T09:44:45.925Z,63.74
2022-10-11T09:50:15.122Z,61.85
2022-10-11T09:55:47.513Z,61.69
2022-10-11T10:01:06.573Z,62.77
2022-10-11T10:06:16.805Z,60.63
2022-10-11T10:11:19.215Z,57.37
2022-10-11T10:16:29.025Z,57.36
2022-10-11T10:21:34.420Z,59.36
2022-10-11T10:26:36.180Z,55.39
2022-10-11T10:32:13.413Z,55.36
2022-10-11T10:37:25.673Z,57.38
2022-10-11T10:42:27.511Z,53.85
2022-10-11T10:47:38.509Z,53.91
2022-10-11T10:52:43.586Z,52.13
2022-10-11T10:58:07.436Z,49.09
2022-10-11T11:03:31.913Z,52.49
2022-10-11T11:08:49.196Z,54.57
2022-10-11T11:14:07.537Z,55.00
2022-10-11T11:19:46.533Z,54.75
2022-10-11T11:25:00.028Z,53.87
2022-10-11T11:30:10.394Z,53.28
2022-10-11T11:35:15.002Z,51.59
2022-10-11T11:40:19.740Z,50.56
2022-10-11T11:45:24.162Z,50.29
2022-10-11T11:50:28.613Z,49.54
2022-10-11T11:55:41.214Z,49.76
2022-10-11T12:01:14.834Z,49.19
2022-10-11T12:06:29.259Z,51.24
2022-10-11T12:11:42.135Z,50.15
2022-10-11T12:17:16.355Z,51.77
2022-10-11T12:22:36.466Z,49.62
2022-10-11T12:27:46.727Z,51.74
2022-10-11T12:32:50.282Z,52.56
2022-10-11T12:37:52.079Z,50.21
2022-10-11T12:43:10.331Z,49.72
2022-10-11T12:48:11.864Z,48.90
2022-10-11T12:53:35.014Z,49.37
2022-10-11T12:58:43.910Z,48.89
2022-10-11T13:03:49.240Z,48.82
2022-10-11T13:08:59.712Z,48.95
2022-10-11T13:14:08.386Z,49.45
2022-10-11T13:19:14.387Z,49.99
2022-10-11T13:24:18.540Z,50.62
2022-10-11T13:29:29.926Z,49.95
2022-10-11T13:34:35.404Z,49.66
2022-10-11T13:39:39.230Z,49.49
2022-10-11T13:44:41.796Z,47.87
2022-10-11T13:49:50.414Z,49.63
2022-10-11T13:54:57.764Z,49.43
2022-10-11T14:00:02.429Z,50.64
2022-10-11T14:05:34.792Z,50.06
2022-10-11T14:10:36.488Z,50.57
2022-10-11T14:15:38.335Z,50.06
2022-10-11T14:20:40.598Z,49.75
2022-10-11T14:25:42.219Z,48.75
2022-10-11T14:30:43.930Z,47.72
2022-10-11T14:35:45.542Z,48.77
2022-10-11T14:40:47.302Z,49.68
2022-10-11T14:45:48.910Z,48.94
2022-10-11T14:50:59.700Z,47.88
2022-10-11T14:56:01.528Z,48.39
2022-10-11T15:01:06.776Z,49.59
2022-10-11T15:06:18.341Z,49.06
2022-10-11T15:11:23.902Z,48.26
2022-10-11T15:16:26.886Z,47.90
2022-10-11T15:21:29.313Z,49.09
2022-10-11T15:26:32.978Z,48.68
2022-10-11T15:31:34.606Z,49.33
2022-10-11T15:36:36.257Z,49.71
2022-10-11T15:41:38.053Z,49.75
2022-10-11T15:46:41.558Z,50.09
2022-10-11T15:51:43.200Z,50.44
2022-10-11T15:56:44.904Z,51.23
2022-10-11T16:01:47.048Z,51.06
2022-10-11T16:06:51.476Z,51.58
2022-10-11T16:11:53.325Z,51.85
2022-10-11T16:16:54.993Z,52.10
2022-10-11T16:21:56.599Z,53.36
2022-10-11T16:26:58.246Z,54.38
2022-10-11T16:31:59.949Z,54.69
2022-10-11T16:37:01.739Z,55.13
2022-10-11T16:42:03.634Z,55.54
2022-10-11T16:47:06.131Z,56.23
2022-10-11T16:52:10.695Z,56.96
2022-10-11T16:57:14.139Z,58.12
2022-10-11T17:02:21.886Z,59.31
2022-10-11T17:07:23.742Z,61.00
2022-10-11T17:12:26.707Z,61.54
2022-10-11T17:17:28.311Z,62.87
2022-10-11T17:22:32.725Z,63.68
2022-10-11T17:27:34.317Z,64.47
2022-10-11T17:32:36.099Z,65.45
2022-10-11T17:37:37.747Z,66.41
2022-10-11T17:42:39.389Z,67.25
2022-10-11T17:47:41.066Z,67.91
2022-10-11T17:52:43.029Z,69.14
2022-10-11T17:57:45.010Z,70.35
2022-10-11T18:02:47.464Z,70.51
2022-10-11T18:07:52.795Z,68.87
2022-10-11T18:12:57.893Z,67.10
2022-10-11T18:18:02.106Z,69.36
2022-10-11T18:23:09.491Z,70.46
2022-10-11T18:28:30.847Z,70.69
2022-10-11T18:33:36.017Z,70.88
2022-10-11T18:39:00.251Z,71.94
2022-10-11T18:44:11.249Z,71.80
2022-10-11T18:49:15.964Z,72.26
2022-10-11T18:54:21.350Z,72.60
2022-10-11T18:59:26.466Z,72.58
2022-10-11T19:10:39.577Z,72.66
2022-10-11T19:21:58.504Z,74.19
2022-10-11T19:43:18.182Z,75.08
2022-10-11T19:48:23.135Z,75.40
2022-10-11T19:53:27.341Z,75.41
2022-10-11T19:58:32.343Z,75.75
2022-10-11T20:03:59.178Z,75.79
2022-10-11T20:09:28.028Z,76.46
2022-10-11T20:15:31.018Z,76.48
2022-10-11T20:20:50.590Z,76.53
2022-10-11T20:43:03.382Z,76.84
2022-10-11T20:48:17.202Z,76.83
2022-10-11T20:53:24.584Z,78.00
2022-10-11T20:58:35.557Z,77.59
2022-10-11T21:04:05.314Z,77.96
2022-10-11T21:09:23.944Z,78.33
2022-10-11T21:14:40.230Z,78.37
2022-10-11T21:25:36.970Z,78.27
2022-10-11T21:30:42.273Z,78.79
2022-10-11T21:35:47.828Z,79.15
2022-10-11T21:40:53.367Z,79.79
2022-10-11T21:46:04.371Z,79.17
2022-10-11T21:51:06.481Z,78.83
2022-10-11T21:56:08.188Z,78.89
2022-10-11T22:01:13.402Z,79.38
2022-10-11T22:06:16.147Z,79.08
2022-10-11T22:11:18.136Z,79.18
2022-10-11T22:16:22.953Z,79.14
2022-10-11T22:21:24.748Z,79.79
2022-10-11T22:26:30.628Z,79.95
2022-10-11T22:31:32.795Z,79.94
2022-10-11T22:36:34.527Z,79.57
2022-10-11T22:41:39.490Z,79.81
2022-10-11T22:46:41.106Z,80.43
2022-10-11T22:51:45.377Z,80.07
2022-10-11T22:56:50.151Z,80.39
2022-10-11T23:01:52.093Z,80.83
2022-10-11T23:33:49.708Z,81.59
2022-10-11T23:45:38.891Z,81.52
2022-10-11T23:50:46.494Z,81.20
2022-10-11T23:55:48.524Z,81.04
